Time;durP1;ratioP1;P1;durP2;ratioP2;P2;SDS_P1;SDS_P2;PMS_P1;PMS_P2;Temp;Humidity;BMP_temperature;BMP_pressure;BME280_temperature;BME280_humidity;BME280_pressure;Samples;Min_cycle;Max_cycle;Signal;HPM_P1;HPM_P2
2022/03/23 00:01:24;;;;;;;13.02;3.83;;;24.40;69.30;;;;;;5007079;28;20032;-68
2022/03/23 00:03:51;;;;;;;10.75;3.67;;;24.30;69.10;;;;;;5009299;28;20354;-68
2022/03/23 00:06:17;;;;;;;12.95;4.15;;;24.30;69.00;;;;;;5008383;28;20041;-68
2022/03/23 00:08:47;;;;;;;11.43;3.30;;;24.30;69.00;;;;;;5008920;28;20020;-68
2022/03/23 00:11:14;;;;;;;12.98;4.00;;;24.30;69.00;;;;;;5007586;28;20014;-69
2022/03/23 00:13:40;;;;;;;11.60;4.15;;;24.30;68.90;;;;;;5009903;28;20022;-69
2022/03/23 00:16:07;;;;;;;16.08;5.50;;;24.20;68.90;;;;;;5009909;28;20041;-68
2022/03/23 00:18:34;;;;;;;22.58;5.38;;;24.20;69.00;;;;;;5007668;28;20029;-68
2022/03/23 00:21:00;;;;;;;28.67;4.88;;;24.20;69.00;;;;;;5008132;28;20022;-69
2022/03/23 00:23:27;;;;;;;28.63;5.50;;;24.20;69.10;;;;;;5007248;28;20041;-69
2022/03/23 00:25:54;;;;;;;18.77;4.95;;;24.10;69.20;;;;;;5008814;28;20018;-69
2022/03/23 00:28:20;;;;;;;17.85;5.25;;;24.20;69.30;;;;;;5007383;28;20432;-70
2022/03/23 00:30:50;;;;;;;25.10;4.50;;;24.10;69.90;;;;;;5008895;28;20658;-68
2022/03/23 00:33:17;;;;;;;21.55;5.00;;;24.10;69.30;;;;;;5006274;28;20068;-69
2022/03/23 00:35:43;;;;;;;21.15;4.97;;;24.10;69.40;;;;;;5008850;28;20629;-68
2022/03/23 00:38:10;;;;;;;24.08;5.25;;;24.10;69.50;;;;;;5008272;28;20156;-69
2022/03/23 00:40:38;;;;;;;16.35;5.80;;;24.10;69.60;;;;;;5010309;28;20024;-69
2022/03/23 00:43:04;;;;;;;50.58;8.20;;;24.10;69.70;;;;;;5008398;28;20515;-69
2022/03/23 00:45:31;;;;;;;26.48;5.55;;;24.10;70.00;;;;;;5005981;28;20104;-70
2022/03/23 00:47:58;;;;;;;13.88;5.78;;;24.10;70.30;;;;;;5008040;28;20024;-69
2022/03/23 00:50:25;;;;;;;19.85;5.70;;;24.10;70.50;;;;;;5008131;28;20038;-69
2022/03/23 00:52:51;;;;;;;15.20;6.43;;;24.10;70.40;;;;;;5010331;28;20053;-68
2022/03/23 00:55:18;;;;;;;14.43;6.30;;;24.00;70.30;;;;;;5007681;28;20042;-69
2022/03/23 00:57:45;;;;;;;34.28;7.68;;;24.00;70.20;;;;;;5008326;28;20074;-68
2022/03/23 01:00:17;;;;;;;20.48;9.10;;;24.00;70.30;;;;;;5007884;28;20022;-69
2022/03/23 01:02:46;;;;;;;21.80;6.78;;;24.00;70.30;;;;;;5006360;28;20033;-70
2022/03/23 01:05:13;;;;;;;27.25;8.32;;;24.00;70.30;;;;;;5006434;28;20022;-69
2022/03/23 01:07:41;;;;;;;28.25;8.00;;;24.00;70.40;;;;;;5004439;28;20049;-68
2022/03/23 01:10:13;;;;;;;19.23;7.30;;;24.00;70.50;;;;;;5010016;28;20099;-68
2022/03/23 01:12:41;;;;;;;10.48;5.15;;;24.00;70.40;;;;;;5005684;28;20029;-67
2022/03/23 01:15:09;;;;;;;16.30;6.22;;;24.00;70.50;;;;;;5006443;28;20121;-69
2022/03/23 01:17:37;;;;;;;15.52;5.32;;;24.00;70.50;;;;;;5004588;28;20545;-67
2022/03/23 01:20:05;;;;;;;15.25;4.85;;;24.00;70.50;;;;;;5008775;28;20476;-69
2022/03/23 01:22:32;;;;;;;16.38;5.82;;;24.00;70.70;;;;;;5007654;28;20033;-69
2022/03/23 01:24:58;;;;;;;13.43;5.30;;;24.00;70.90;;;;;;5006349;28;20062;-68
2022/03/23 01:27:25;;;;;;;17.00;5.03;;;24.00;71.00;;;;;;5008829;28;20543;-68
2022/03/23 01:29:52;;;;;;;15.48;5.82;;;23.90;71.00;;;;;;5004835;28;20030;-68
2022/03/23 01:32:18;;;;;;;14.02;5.18;;;23.90;71.10;;;;;;5007267;28;20026;-69
2022/03/23 01:34:45;;;;;;;10.90;4.00;;;23.90;71.20;;;;;;5008942;28;20034;-67
2022/03/23 01:37:11;;;;;;;13.18;4.07;;;23.90;71.20;;;;;;5008594;28;20041;-68
2022/03/23 01:39:38;;;;;;;19.50;5.50;;;23.90;71.20;;;;;;5004407;28;20076;-68
2022/03/23 01:42:04;;;;;;;13.20;4.95;;;23.90;71.20;;;;;;5004405;28;20440;-68
2022/03/23 01:44:31;;;;;;;17.40;4.80;;;23.90;71.20;;;;;;5005767;28;20587;-69
2022/03/23 01:47:12;;;;;;;17.58;4.00;;;23.90;71.20;;;;;;5006660;28;20105;-68
2022/03/23 01:49:45;;;;;;;23.10;5.38;;;23.90;71.20;;;;;;5007532;28;20038;-67
2022/03/23 01:52:15;;;;;;;15.65;3.78;;;23.90;71.20;;;;;;5006766;28;20030;-68
2022/03/23 01:54:42;;;;;;;17.77;4.40;;;23.90;71.20;;;;;;5003175;28;20061;-68
2022/03/23 01:57:12;;;;;;;11.98;3.38;;;23.90;71.20;;;;;;5008568;28;20025;-68
2022/03/23 01:59:39;;;;;;;15.05;4.53;;;23.80;71.20;;;;;;5002600;28;20029;-70
2022/03/23 02:02:08;;;;;;;12.45;3.67;;;23.80;71.20;;;;;;5006779;28;20085;-69
2022/03/23 02:04:35;;;;;;;14.57;4.15;;;23.80;71.30;;;;;;5005511;28;20530;-69
2022/03/23 02:07:41;;;;;;;17.13;3.33;;;23.80;71.30;;;;;;5008477;28;20025;-69
2022/03/23 02:10:08;;;;;;;53.33;6.47;;;23.80;71.30;;;;;;5005815;28;20022;-68
2022/03/23 02:12:34;;;;;;;27.45;7.75;;;23.80;72.20;;;;;;5005378;28;20531;-68
2022/03/23 02:15:11;;;;;;;26.65;7.38;;;23.80;72.20;;;;;;5007193;28;20070;-69
2022/03/23 02:17:38;;;;;;;25.35;5.88;;;23.80;72.30;;;;;;5005714;28;20492;-69
2022/03/23 02:20:06;;;;;;;15.75;4.90;;;23.80;72.20;;;;;;5008612;28;20030;-68
2022/03/23 02:22:32;;;;;;;12.60;3.15;;;23.80;72.10;;;;;;5006057;28;20019;-69
2022/03/23 02:24:59;;;;;;;13.88;3.40;;;23.80;72.20;;;;;;5005949;28;20020;-68
2022/03/23 02:27:26;;;;;;;10.45;3.03;;;23.80;72.20;;;;;;5005859;28;20045;-68
2022/03/23 02:29:53;;;;;;;9.75;3.25;;;23.80;72.20;;;;;;5003011;28;20036;-68
2022/03/23 02:32:20;;;;;;;11.63;3.55;;;23.80;72.20;;;;;;5006401;28;20080;-68
2022/03/23 02:34:47;;;;;;;10.68;3.97;;;23.80;72.30;;;;;;5002690;28;20481;-69
2022/03/23 02:37:13;;;;;;;10.73;3.25;;;23.80;72.30;;;;;;5005376;28;20018;-68
2022/03/23 02:39:40;;;;;;;9.90;3.53;;;23.70;72.30;;;;;;5004507;28;20031;-68
2022/03/23 02:42:06;;;;;;;14.02;3.13;;;23.80;72.40;;;;;;5006037;28;20018;-69
2022/03/23 02:44:33;;;;;;;11.77;3.38;;;23.70;72.40;;;;;;5005254;28;20504;-68
2022/03/23 02:47:01;;;;;;;12.48;3.83;;;23.70;72.40;;;;;;5006470;28;20026;-68
2022/03/23 02:49:27;;;;;;;7.63;2.50;;;23.80;72.50;;;;;;5004786;28;20105;-68
2022/03/23 02:51:54;;;;;;;9.02;2.88;;;23.80;72.50;;;;;;5003454;28;20020;-68
2022/03/23 03:03:28;;;;;;;9.05;3.15;;;23.70;72.80;;;;;;5001830;28;20046;-67
2022/03/23 03:05:55;;;;;;;8.52;2.88;;;23.70;72.90;;;;;;5008124;28;20030;-70
2022/03/23 03:11:06;;;;;;;11.32;3.90;;;23.70;73.10;;;;;;5006603;28;20041;-70
2022/03/23 03:13:33;;;;;;;11.25;3.60;;;23.70;73.10;;;;;;5006010;28;20056;-70
2022/03/23 03:16:03;;;;;;;12.40;3.25;;;23.70;73.80;;;;;;5008213;28;20095;-70
2022/03/23 03:18:34;;;;;;;13.02;3.78;;;23.70;73.20;;;;;;5003891;28;20022;-71
2022/03/23 03:21:06;;;;;;;7.93;3.63;;;23.70;73.20;;;;;;5005965;28;20013;-70
2022/03/23 03:24:12;;;;;;;10.57;2.80;;;23.70;73.20;;;;;;5006192;28;20034;-71
2022/03/23 03:27:18;;;;;;;14.15;3.42;;;23.70;73.20;;;;;;5003014;28;20033;-71
2022/03/23 03:30:24;;;;;;;13.98;3.38;;;23.70;73.30;;;;;;5003335;28;20030;-69
2022/03/23 03:33:30;;;;;;;11.88;3.08;;;23.70;73.30;;;;;;5005049;28;20394;-71
2022/03/23 03:36:36;;;;;;;10.70;2.65;;;23.70;73.30;;;;;;5005600;28;20107;-70
2022/03/23 03:39:22;;;;;;;;;;;23.70;73.30;;;;;;5009934;28;20017;-69
2022/03/23 03:42:29;;;;;;;13.98;3.65;;;23.70;73.40;;;;;;5008734;28;19917;-71
2022/03/23 03:45:35;;;;;;;13.02;3.63;;;23.70;73.40;;;;;;5007338;28;20026;-69
2022/03/23 03:48:41;;;;;;;11.00;3.22;;;23.70;73.40;;;;;;5008510;28;20107;-69
2022/03/23 03:51:27;;;;;;;;;;;23.70;73.40;;;;;;5007396;28;20452;-70
2022/03/23 03:54:33;;;;;;;14.45;4.65;;;23.70;73.50;;;;;;5010385;28;19924;-69
2022/03/23 03:57:39;;;;;;;8.65;3.55;;;23.70;73.50;;;;;;5007691;28;20071;-69
2022/03/23 04:00:44;;;;;;;11.73;3.25;;;23.70;73.60;;;;;;5009241;28;20036;-70
2022/03/23 04:03:12;;;;;;;10.23;3.55;;;23.60;73.70;;;;;;5009333;28;20101;-71
2022/03/23 04:05:39;;;;;;;9.82;4.10;;;23.60;73.90;;;;;;5005608;28;20018;-70
2022/03/23 04:08:06;;;;;;;13.68;3.78;;;23.60;74.00;;;;;;5006515;28;20125;-70
2022/03/23 04:10:33;;;;;;;13.70;3.15;;;23.60;74.00;;;;;;5005855;28;20025;-71
2022/03/23 04:12:59;;;;;;;16.63;4.88;;;23.60;74.00;;;;;;5006482;28;20590;-71
2022/03/23 04:15:26;;;;;;;19.50;5.90;;;23.60;74.20;;;;;;5010244;28;20449;-69
2022/03/23 04:17:56;;;;;;;19.50;5.18;;;23.60;74.50;;;;;;5006092;28;20033;-68
2022/03/23 04:20:23;;;;;;;19.60;4.88;;;23.60;74.80;;;;;;5007772;28;20430;-68
2022/03/23 04:22:50;;;;;;;13.05;4.32;;;23.60;74.80;;;;;;5008694;28;20359;-69
2022/03/23 04:25:17;;;;;;;15.70;4.47;;;23.60;74.70;;;;;;5008550;28;20026;-68
2022/03/23 04:27:53;;;;;;;17.52;3.97;;;23.50;74.60;;;;;;5009280;28;20061;-69
2022/03/23 04:30:22;;;;;;;16.77;5.93;;;23.50;74.70;;;;;;5009128;28;20026;-70
2022/03/23 04:32:50;;;;;;;22.35;5.50;;;23.50;74.80;;;;;;5010343;28;20069;-69
2022/03/23 04:35:18;;;;;;;8.82;4.28;;;23.50;75.50;;;;;;5007757;28;20040;-70
2022/03/23 04:37:45;;;;;;;10.68;4.15;;;23.50;74.80;;;;;;5008552;28;20492;-70
2022/03/23 04:40:16;;;;;;;11.13;3.50;;;23.50;74.70;;;;;;5004998;28;20033;-69
2022/03/23 04:42:44;;;;;;;14.05;4.40;;;23.50;74.70;;;;;;5017210;28;20405;-70
2022/03/23 04:45:12;;;;;;;13.23;4.63;;;23.50;74.70;;;;;;5011005;28;20065;-69
2022/03/23 04:47:39;;;;;;;10.20;4.20;;;23.50;74.70;;;;;;5005852;28;20038;-70
2022/03/23 04:50:11;;;;;;;8.82;3.83;;;23.50;74.80;;;;;;5008267;28;20026;-70
2022/03/23 04:52:40;;;;;;;15.82;3.70;;;23.50;74.80;;;;;;5005077;28;20041;-69
2022/03/23 04:55:07;;;;;;;15.60;4.95;;;23.50;74.70;;;;;;5007018;28;20497;-69
2022/03/23 04:57:34;;;;;;;18.58;3.50;;;23.50;74.70;;;;;;5006283;28;20026;-69
2022/03/23 05:00:01;;;;;;;12.88;4.15;;;23.50;74.70;;;;;;5007766;28;20013;-69
2022/03/23 05:02:27;;;;;;;17.52;5.35;;;23.50;74.70;;;;;;5007252;28;20038;-69
2022/03/23 05:04:54;;;;;;;21.92;5.93;;;23.50;74.80;;;;;;5005677;28;20421;-69
2022/03/23 05:07:20;;;;;;;12.43;4.55;;;23.50;74.90;;;;;;5007440;28;20416;-70
2022/03/23 05:09:47;;;;;;;19.67;5.15;;;23.40;74.80;;;;;;5006356;28;20014;-70
2022/03/23 05:12:13;;;;;;;19.60;4.05;;;23.40;74.90;;;;;;5006097;28;20021;-69
2022/03/23 05:14:40;;;;;;;16.13;4.20;;;23.40;75.10;;;;;;5005292;28;20041;-70
2022/03/23 05:17:07;;;;;;;26.48;5.35;;;23.40;75.30;;;;;;5006852;28;20554;-69
2022/03/23 05:19:35;;;;;;;14.63;4.28;;;23.40;75.50;;;;;;5006402;28;20026;-69
2022/03/23 05:22:02;;;;;;;11.00;3.70;;;23.40;75.40;;;;;;5008743;28;20013;-69
2022/03/23 05:24:28;;;;;;;14.98;4.97;;;23.40;75.30;;;;;;5009970;28;20026;-69
2022/03/23 05:26:55;;;;;;;10.85;3.00;;;23.40;75.30;;;;;;5007288;28;20029;-69
2022/03/23 05:29:22;;;;;;;12.48;4.05;;;23.40;75.30;;;;;;5006877;28;20072;-69
2022/03/23 05:32:28;;;;;;;15.38;4.97;;;23.40;75.20;;;;;;5007801;28;20535;-69
2022/03/23 05:35:34;;;;;;;11.75;3.38;;;23.40;75.40;;;;;;5006709;28;20034;-69
2022/03/23 05:38:40;;;;;;;14.00;4.95;;;23.40;75.40;;;;;;5008969;28;20029;-69
2022/03/23 05:41:46;;;;;;;10.95;4.32;;;23.40;75.40;;;;;;5007942;28;20599;-69
2022/03/23 05:44:52;;;;;;;13.52;5.95;;;23.40;75.60;;;;;;5007113;28;20030;-69
2022/03/23 05:47:58;;;;;;;15.70;4.55;;;23.40;75.80;;;;;;5006120;28;20022;-69
2022/03/23 05:51:04;;;;;;;37.78;7.57;;;23.40;75.80;;;;;;5007204;28;20033;-69
2022/03/23 05:54:10;;;;;;;26.25;6.47;;;23.40;75.90;;;;;;5001438;28;20046;-69
2022/03/23 05:57:16;;;;;;;15.88;4.22;;;23.40;75.90;;;;;;5005554;28;20038;-69
2022/03/23 06:00:22;;;;;;;10.75;4.10;;;23.40;76.00;;;;;;5006428;28;20145;-69
2022/03/23 06:03:08;;;;;;;;;;;23.40;76.10;;;;;;5004781;28;20018;-69
2022/03/23 06:06:14;;;;;;;17.80;5.60;;;23.40;76.10;;;;;;5006390;28;19905;-69
2022/03/23 06:09:20;;;;;;;27.02;4.53;;;23.40;76.20;;;;;;5007406;28;20022;-69
2022/03/23 06:11:47;;;;;;;17.65;4.28;;;23.40;76.20;;;;;;5004352;28;20152;-69
2022/03/23 06:14:13;;;;;;;17.58;4.40;;;23.40;76.30;;;;;;5005184;28;20462;-69
2022/03/23 06:16:40;;;;;;;19.75;4.95;;;23.40;76.40;;;;;;5007554;28;20053;-70
2022/03/23 06:19:09;;;;;;;20.35;4.65;;;23.40;76.60;;;;;;5008216;28;20507;-69
2022/03/23 06:21:36;;;;;;;12.25;5.28;;;23.40;76.80;;;;;;5007295;28;20116;-69
2022/03/23 06:24:02;;;;;;;16.15;4.22;;;23.40;76.80;;;;;;5006444;28;20026;-69
2022/03/23 06:26:29;;;;;;;18.35;5.07;;;23.40;76.70;;;;;;5006123;28;20045;-69
2022/03/23 06:28:55;;;;;;;17.15;4.63;;;23.40;76.70;;;;;;5006015;28;20033;-69
2022/03/23 06:31:22;;;;;;;15.45;4.95;;;23.40;76.90;;;;;;5005638;28;20092;-69
2022/03/23 06:33:49;;;;;;;14.25;4.47;;;23.40;76.90;;;;;;5007628;28;20030;-70
2022/03/23 06:36:15;;;;;;;20.95;5.25;;;23.50;76.80;;;;;;5004366;28;20032;-69
2022/03/23 06:38:42;;;;;;;10.00;5.38;;;23.50;76.70;;;;;;5002300;28;20022;-70
2022/03/23 06:41:08;;;;;;;12.32;4.90;;;23.50;76.70;;;;;;5005401;28;20113;-69
2022/03/23 06:43:35;;;;;;;12.02;4.85;;;23.50;76.60;;;;;;5003205;28;20026;-69
2022/03/23 06:46:03;;;;;;;10.68;4.40;;;23.50;76.60;;;;;;5007224;28;20101;-69
2022/03/23 06:48:29;;;;;;;12.77;3.70;;;23.50;76.50;;;;;;5005113;28;20026;-70
2022/03/23 06:50:56;;;;;;;16.60;3.90;;;23.50;76.40;;;;;;5005918;28;20026;-69
2022/03/23 06:53:22;;;;;;;22.05;5.72;;;23.50;76.50;;;;;;5004488;28;20037;-69
2022/03/23 06:56:28;;;;;;;19.08;5.95;;;23.50;76.30;;;;;;5006668;28;20030;-69
2022/03/23 06:59:14;;;;;;;;;;;23.50;76.10;;;;;;5006870;28;20461;-69
2022/03/23 07:02:20;;;;;;;16.00;4.40;;;23.50;76.00;;;;;;5004370;28;20022;-69
2022/03/23 07:05:26;;;;;;;19.38;5.95;;;23.50;75.80;;;;;;5005682;28;20022;-69
2022/03/23 07:11:37;;;;;;;30.33;6.25;;;23.50;75.70;;;;;;5005819;28;19955;-69
2022/03/23 07:14:43;;;;;;;16.48;4.53;;;23.60;75.80;;;;;;5010862;28;20570;-70
2022/03/23 07:17:49;;;;;;;22.50;5.45;;;23.60;76.10;;;;;;5008654;28;20100;-69
2022/03/23 07:20:55;;;;;;;15.85;5.30;;;23.60;76.30;;;;;;5009308;28;20032;-69
2022/03/23 07:24:01;;;;;;;16.20;5.10;;;23.60;76.20;;;;;;5009834;28;20033;-69
2022/03/23 07:27:07;;;;;;;15.35;5.93;;;23.60;76.30;;;;;;5009706;28;20113;-69
2022/03/23 07:30:13;;;;;;;15.00;5.35;;;23.60;76.30;;;;;;5009536;28;20042;-70
2022/03/23 07:33:19;;;;;;;12.90;4.35;;;23.70;76.30;;;;;;5006996;28;20582;-69
2022/03/23 07:36:05;;;;;;;;;;;23.70;76.30;;;;;;5007224;28;20070;-69
2022/03/23 07:38:32;;;;;;;18.65;6.72;;;23.70;76.30;;;;;;5008210;28;20488;-69
2022/03/23 07:40:58;;;;;;;17.33;5.05;;;23.80;76.20;;;;;;5009819;28;20044;-69
2022/03/23 07:43:24;;;;;;;19.80;4.57;;;23.80;76.20;;;;;;5009804;28;20088;-69
2022/03/23 07:45:51;;;;;;;12.68;5.30;;;23.90;76.80;;;;;;5008989;28;20030;-69
2022/03/23 07:48:17;;;;;;;12.80;3.95;;;23.90;75.80;;;;;;5006228;28;21992;-69
2022/03/23 07:50:44;;;;;;;13.35;4.45;;;24.00;75.60;;;;;;5009959;28;20105;-69
2022/03/23 07:53:10;;;;;;;8.20;4.40;;;24.00;75.30;;;;;;5008682;28;20014;-69
2022/03/23 07:55:37;;;;;;;6.75;3.65;;;24.10;75.20;;;;;;5010410;28;20041;-69
2022/03/23 07:58:03;;;;;;;11.57;4.07;;;24.10;75.00;;;;;;5006864;28;20022;-69
2022/03/23 08:00:30;;;;;;;11.60;4.10;;;24.20;74.80;;;;;;5010114;28;20112;-69
2022/03/23 08:02:57;;;;;;;10.13;3.30;;;24.20;74.60;;;;;;5008899;28;20017;-69
2022/03/23 08:05:25;;;;;;;9.68;4.50;;;24.20;74.40;;;;;;5009993;28;20129;-69
2022/03/23 08:07:51;;;;;;;8.98;3.22;;;24.30;74.20;;;;;;5009776;28;20434;-69
2022/03/23 08:10:18;;;;;;;8.70;3.30;;;24.30;74.00;;;;;;5009826;28;20018;-69
2022/03/23 08:12:44;;;;;;;7.93;3.30;;;24.30;74.40;;;;;;5008615;28;20010;-69
2022/03/23 08:15:11;;;;;;;11.57;3.58;;;24.30;73.60;;;;;;5005984;28;20125;-69
2022/03/23 08:17:38;;;;;;;9.68;4.95;;;24.40;73.50;;;;;;5010167;28;20465;-69
2022/03/23 08:22:57;;;;;;;6.60;3.17;;;24.50;73.60;;;;;;5008488;28;20397;-69
2022/03/23 08:25:24;;;;;;;10.75;3.53;;;24.50;73.00;;;;;;5008591;28;20014;-69
2022/03/23 08:27:50;;;;;;;11.00;2.95;;;24.60;72.90;;;;;;5008679;28;20014;-69
2022/03/23 08:30:17;;;;;;;13.00;3.03;;;24.70;72.70;;;;;;5005714;28;20021;-69
2022/03/23 08:32:44;;;;;;;7.38;2.60;;;24.70;72.40;;;;;;5007484;28;20022;-69
2022/03/23 08:35:10;;;;;;;9.40;2.70;;;24.70;72.00;;;;;;5008862;28;20034;-69
2022/03/23 08:37:38;;;;;;;14.05;4.57;;;24.80;71.90;;;;;;5007725;28;20034;-69
2022/03/23 08:40:06;;;;;;;14.23;3.92;;;24.90;71.80;;;;;;5009455;28;20100;-69
2022/03/23 08:42:32;;;;;;;7.45;2.92;;;24.90;71.80;;;;;;5007020;28;20036;-69
2022/03/23 08:44:59;;;;;;;17.65;3.97;;;25.00;72.10;;;;;;5007301;28;20020;-69
2022/03/23 08:47:27;;;;;;;8.20;3.55;;;25.00;72.10;;;;;;5007769;28;20105;-70
2022/03/23 08:49:56;;;;;;;15.35;4.10;;;25.00;72.20;;;;;;5009381;28;20128;-69
2022/03/23 08:52:24;;;;;;;14.43;4.13;;;25.10;72.10;;;;;;5006362;28;20026;-69
2022/03/23 08:54:50;;;;;;;19.55;5.38;;;25.20;72.10;;;;;;5009133;28;20058;-70
2022/03/23 08:57:17;;;;;;;11.80;4.20;;;25.30;71.90;;;;;;5009201;28;20397;-69
2022/03/23 08:59:43;;;;;;;14.93;4.88;;;25.30;71.60;;;;;;5007111;28;20456;-68
2022/03/23 09:02:10;;;;;;;15.73;4.45;;;25.30;71.50;;;;;;5006867;28;20500;-69
2022/03/23 09:04:36;;;;;;;13.63;5.22;;;25.30;71.50;;;;;;5007436;28;20028;-69
2022/03/23 09:07:03;;;;;;;17.20;6.65;;;25.30;71.60;;;;;;5006226;28;20468;-69
2022/03/23 09:09:29;;;;;;;13.43;5.07;;;25.30;71.80;;;;;;5008138;28;20022;-69
2022/03/23 09:11:56;;;;;;;11.45;5.78;;;25.30;71.90;;;;;;5007043;28;20030;-69
2022/03/23 09:14:23;;;;;;;15.05;4.43;;;25.30;72.00;;;;;;5007073;28;20113;-69
2022/03/23 09:16:49;;;;;;;14.38;5.53;;;25.30;71.90;;;;;;5008375;28;20028;-69
2022/03/23 09:19:20;;;;;;;14.85;4.90;;;25.30;72.20;;;;;;5007725;28;20034;-69
2022/03/23 09:21:50;;;;;;;17.15;4.90;;;25.30;72.40;;;;;;5008015;28;20018;-69
2022/03/23 09:24:19;;;;;;;14.63;5.85;;;25.30;72.40;;;;;;5007166;28;20033;-69
2022/03/23 09:26:46;;;;;;;17.60;5.63;;;25.30;72.60;;;;;;5007941;28;20100;-69
2022/03/23 09:29:13;;;;;;;18.10;6.38;;;25.30;72.80;;;;;;5004921;28;20014;-69
2022/03/23 09:31:40;;;;;;;18.98;5.60;;;25.30;72.70;;;;;;5009279;28;20026;-69
2022/03/23 09:34:06;;;;;;;10.50;5.35;;;25.30;72.70;;;;;;5004405;28;20022;-69
2022/03/23 09:39:19;;;;;;;13.82;5.80;;;25.30;72.90;;;;;;5009041;28;20057;-69
2022/03/23 09:41:46;;;;;;;13.85;5.47;;;25.30;72.90;;;;;;5006907;28;20108;-69
2022/03/23 09:44:14;;;;;;;16.23;6.22;;;25.30;72.80;;;;;;5005045;28;20044;-69
2022/03/23 09:46:41;;;;;;;22.50;6.65;;;25.40;72.90;;;;;;5005229;28;20025;-69
2022/03/23 09:49:07;;;;;;;22.25;6.32;;;25.40;72.80;;;;;;5007784;28;20400;-69
2022/03/23 09:51:37;;;;;;;14.38;5.50;;;25.50;72.80;;;;;;5005179;28;20029;-69
2022/03/23 09:54:04;;;;;;;24.67;8.40;;;25.60;72.70;;;;;;5005285;28;20046;-69
2022/03/23 09:56:31;;;;;;;20.83;6.88;;;25.70;72.60;;;;;;5007012;28;20027;-69
2022/03/23 09:58:58;;;;;;;26.05;6.22;;;25.70;72.20;;;;;;5006408;28;20064;-70
2022/03/23 10:01:34;;;;;;;17.05;5.97;;;25.80;72.00;;;;;;5005638;28;20076;-69
2022/03/23 10:04:12;;;;;;;12.20;4.93;;;25.90;71.60;;;;;;5007307;28;20504;-69
2022/03/23 10:07:14;;;;;;;16.80;5.45;;;25.90;71.90;;;;;;5006503;28;20373;-69
2022/03/23 10:10:06;;;;;;;21.05;4.88;;;26.00;70.90;;;;;;5006221;28;20022;-69
2022/03/23 10:13:09;;;;;;;16.45;6.05;;;26.10;70.10;;;;;;5003678;28;20033;-69
2022/03/23 10:16:12;;;;;;;18.55;5.90;;;26.20;69.80;;;;;;5005125;28;20030;-69
2022/03/23 10:18:58;;;;;;;13.68;4.93;;;26.30;68.90;;;;;;5002513;28;20725;-69
2022/03/23 10:21:36;;;;;;;11.73;4.85;;;26.40;68.60;;;;;;5006032;28;20048;-69
2022/03/23 10:24:05;;;;;;;9.93;3.90;;;26.50;67.90;;;;;;5005707;28;20026;-69
2022/03/23 10:26:36;;;;;;;9.63;4.03;;;26.60;67.00;;;;;;5006871;28;20464;-69
2022/03/23 10:29:04;;;;;;;8.65;3.38;;;26.70;66.80;;;;;;5004744;28;20025;-69
2022/03/23 10:31:31;;;;;;;8.85;3.08;;;26.80;66.10;;;;;;5005113;28;20057;-69
2022/03/23 10:34:08;;;;;;;8.38;3.80;;;26.90;65.90;;;;;;5005071;28;20049;-69
2022/03/23 10:36:56;;;;;;;10.02;3.10;;;26.90;65.20;;;;;;5005874;28;20135;-69
2022/03/23 10:39:29;;;;;;;5.50;2.90;;;27.10;65.00;;;;;;5004002;28;20033;-69
2022/03/23 10:42:05;;;;;;;6.00;3.42;;;27.20;64.40;;;;;;5003684;28;20416;-69
2022/03/23 10:44:32;;;;;;;7.53;3.20;;;27.20;63.90;;;;;;5003252;28;20024;-69
2022/03/23 10:46:59;;;;;;;9.50;3.85;;;27.30;63.60;;;;;;5004764;28;20784;-69
2022/03/23 10:49:36;;;;;;;7.15;4.00;;;27.40;63.40;;;;;;5006893;28;20034;-69
2022/03/23 10:52:18;;;;;;;7.93;2.22;;;27.50;63.00;;;;;;5005566;28;20501;-69
2022/03/23 10:55:13;;;;;;;6.57;2.97;;;27.60;62.80;;;;;;5004439;28;20034;-69
2022/03/23 10:57:45;;;;;;;5.28;2.60;;;27.70;62.20;;;;;;4999234;28;20511;-69
2022/03/23 11:00:29;;;;;;;6.28;2.80;;;27.80;62.70;;;;;;5005488;28;20022;-69
2022/03/23 11:02:56;;;;;;;8.77;3.03;;;27.90;61.40;;;;;;5006127;28;20019;-69
2022/03/23 11:05:33;;;;;;;12.95;4.35;;;28.00;61.40;;;;;;5007509;28;20131;-69
2022/03/23 11:08:22;;;;;;;23.73;4.45;;;28.10;61.60;;;;;;5004194;28;20033;-69
2022/03/23 11:16:30;;;;;;;11.38;3.33;;;28.30;60.50;;;;;;5005114;28;20044;-69
2022/03/23 11:18:57;;;;;;;8.90;3.40;;;28.30;59.80;;;;;;5006418;28;20062;-70
2022/03/23 11:21:25;;;;;;;5.28;2.22;;;28.40;59.40;;;;;;5006145;28;20072;-69
2022/03/23 11:23:51;;;;;;;11.93;3.25;;;28.50;59.50;;;;;;5004663;28;20092;-69
2022/03/23 11:26:18;;;;;;;9.73;2.65;;;28.50;59.40;;;;;;5004494;28;20026;-69
2022/03/23 11:28:46;;;;;;;8.18;3.63;;;28.60;59.40;;;;;;5002023;28;20471;-69
2022/03/23 11:31:17;;;;;;;7.25;2.83;;;28.60;58.90;;;;;;5005363;28;20029;-69
2022/03/23 11:33:50;;;;;;;10.77;3.22;;;28.70;58.70;;;;;;5005646;28;20032;-69
2022/03/23 11:36:19;;;;;;;8.93;2.50;;;28.70;58.50;;;;;;5005581;28;20095;-69
2022/03/23 11:38:52;;;;;;;7.32;2.63;;;28.70;58.50;;;;;;5005074;28;20025;-69
2022/03/23 11:41:19;;;;;;;5.13;2.10;;;28.70;58.20;;;;;;5005755;28;20029;-69
2022/03/23 11:43:46;;;;;;;8.32;3.28;;;28.70;58.20;;;;;;5007151;28;20036;-70
2022/03/23 11:46:13;;;;;;;9.27;2.92;;;28.70;58.00;;;;;;5007711;28;20022;-69
2022/03/23 11:48:57;;;;;;;12.48;2.63;;;28.80;58.00;;;;;;5003935;28;20041;-69
2022/03/23 11:51:54;;;;;;;6.07;2.45;;;28.80;57.80;;;;;;5002173;28;20461;-69
2022/03/23 11:54:24;;;;;;;7.03;2.95;;;28.80;57.60;;;;;;5004313;28;20129;-69
2022/03/23 11:56:57;;;;;;;14.80;2.85;;;28.90;57.20;;;;;;5003764;28;20061;-69
2022/03/23 11:59:25;;;;;;;10.90;2.40;;;28.90;57.00;;;;;;5008359;28;20033;-69
2022/03/23 12:01:53;;;;;;;5.60;2.95;;;29.00;57.00;;;;;;5008106;28;20024;-69
2022/03/23 12:04:22;;;;;;;11.18;2.10;;;29.00;57.10;;;;;;5006649;28;20420;-69
2022/03/23 12:07:01;;;;;;;4.15;1.92;;;29.00;56.40;;;;;;5008808;28;20026;-69
2022/03/23 12:09:41;;;;;;;7.15;2.38;;;29.10;56.50;;;;;;5008918;28;20234;-69
2022/03/23 12:12:41;;;;;;;4.82;2.08;;;29.20;56.10;;;;;;5006456;28;20022;-69
2022/03/23 12:15:28;;;;;;;4.80;1.83;;;29.30;55.30;;;;;;5007310;28;20033;-69
2022/03/23 12:17:57;;;;;;;4.03;1.88;;;29.40;54.80;;;;;;5007988;28;20485;-69
2022/03/23 12:20:37;;;;;;;2.47;1.83;;;29.40;54.40;;;;;;5006901;28;21898;-69
2022/03/23 12:23:36;;;;;;;6.95;1.92;;;29.50;54.40;;;;;;5010353;28;20112;-69
2022/03/23 12:26:10;;;;;;;8.50;2.10;;;29.50;54.40;;;;;;5006939;28;20026;-70
2022/03/23 12:28:45;;;;;;;6.10;2.25;;;29.60;54.50;;;;;;5006544;28;20815;-70
2022/03/23 12:31:15;;;;;;;6.28;2.22;;;29.70;54.00;;;;;;5009440;28;20033;-69
2022/03/23 12:34:14;;;;;;;6.90;1.40;;;29.80;53.60;;;;;;5007059;28;20010;-69
2022/03/23 12:36:57;;;;;;;3.05;1.60;;;29.80;53.40;;;;;;5008577;28;20037;-69
2022/03/23 12:39:30;;;;;;;4.07;1.75;;;29.90;52.80;;;;;;5008927;28;20041;-69
2022/03/23 12:41:59;;;;;;;3.45;1.90;;;29.90;52.40;;;;;;5007076;28;20564;-69
2022/03/23 12:44:31;;;;;;;6.15;3.15;;;29.90;52.60;;;;;;5008404;28;20073;-69
2022/03/23 12:47:04;;;;;;;11.68;3.08;;;29.90;53.60;;;;;;5004726;28;20049;-69
2022/03/23 12:58:11;;;;;;;10.52;3.65;;;29.90;55.50;;;;;;5006826;28;20129;-69
2022/03/23 13:00:43;;;;;;;8.45;3.80;;;30.00;55.70;;;;;;5006104;28;20431;-69
2022/03/23 13:03:09;;;;;;;8.93;3.50;;;30.00;55.90;;;;;;5007852;28;20025;-69
2022/03/23 13:05:58;;;;;;;10.05;3.70;;;29.90;56.00;;;;;;5008535;28;20097;-69
2022/03/23 13:08:30;;;;;;;13.52;3.53;;;29.90;56.00;;;;;;5004253;28;20397;-69
2022/03/23 13:11:01;;;;;;;11.27;3.50;;;29.90;56.10;;;;;;5008806;28;20025;-69
2022/03/23 13:13:29;;;;;;;14.70;3.83;;;29.90;56.30;;;;;;5005579;28;20029;-69
2022/03/23 13:15:56;;;;;;;8.68;3.63;;;29.90;56.40;;;;;;5008726;28;20038;-69
2022/03/23 13:18:28;;;;;;;6.78;3.15;;;29.80;56.50;;;;;;5004594;28;20054;-69
2022/03/23 13:20:58;;;;;;;9.00;3.28;;;29.90;56.80;;;;;;5006758;28;20030;-70
2022/03/23 13:23:26;;;;;;;8.02;3.33;;;29.80;56.70;;;;;;5005829;28;20473;-70
2022/03/23 13:26:10;;;;;;;15.35;4.85;;;29.80;56.80;;;;;;5005678;28;20105;-70
2022/03/23 13:28:48;;;;;;;12.00;4.25;;;29.80;56.90;;;;;;5006826;28;20531;-69
2022/03/23 13:31:22;;;;;;;12.38;3.97;;;29.80;57.10;;;;;;5007064;28;20040;-70
2022/03/23 13:33:51;;;;;;;12.68;2.75;;;29.60;57.20;;;;;;5007684;28;20017;-69
2022/03/23 13:36:23;;;;;;;9.27;3.22;;;29.60;57.50;;;;;;5008451;28;20045;-70
2022/03/23 13:38:54;;;;;;;9.07;3.40;;;29.50;57.70;;;;;;5005971;28;20384;-69
2022/03/23 13:44:12;;;;;;;13.70;3.22;;;29.30;58.20;;;;;;5006153;28;20042;-69
2022/03/23 13:46:39;;;;;;;7.55;3.50;;;29.30;58.40;;;;;;5006730;28;20021;-70
2022/03/23 13:49:07;;;;;;;10.32;3.38;;;29.20;58.40;;;;;;5006141;28;20026;-69
2022/03/23 13:51:37;;;;;;;8.27;2.92;;;29.20;58.60;;;;;;5005540;28;20030;-70
2022/03/23 13:54:07;;;;;;;8.63;2.70;;;29.20;58.80;;;;;;5007673;28;20037;-69